Time;durP1;ratioP1;P1;durP2;ratioP2;P2;SDS_P1;SDS_P2;PMS_P1;PMS_P2;Temp;Humidity;BMP_temperature;BMP_pressure;BME280_temperature;BME280_humidity;BME280_pressure;Samples;Min_cycle;Max_cycle;Signal;HPM_P1;HPM_P2
2022/01/24 00:02:01;;;;;;;33.22;15.93;;;2.70;99.90;;;;;;5077088;28;20052;-92
2022/01/24 00:04:27;;;;;;;34.30;15.85;;;2.70;99.90;;;;;;5076812;28;20024;-93
2022/01/24 00:06:53;;;;;;;29.27;13.30;;;2.70;99.90;;;;;;5078217;28;20031;-94
2022/01/24 00:09:19;;;;;;;32.40;16.05;;;2.60;99.90;;;;;;5079808;28;20028;-94
2022/01/24 00:11:59;;;;;;;31.35;15.38;;;2.60;99.90;;;;;;5082437;28;20028;-93
2022/01/24 00:14:56;;;;;;;32.95;16.15;;;2.60;99.90;;;;;;5082495;28;20020;-93
2022/01/24 00:17:18;;;;;;;31.25;16.30;;;2.60;99.90;;;;;;5091157;28;20055;-94
2022/01/24 00:28:00;;;;;;;30.58;15.30;;;2.40;99.90;;;;;;5100441;28;20073;-93
2022/01/24 00:30:26;;;;;;;34.92;16.58;;;2.50;99.90;;;;;;5099486;28;20024;-94
2022/01/24 00:32:52;;;;;;;32.65;16.77;;;2.50;99.90;;;;;;5099651;28;20040;-94
2022/01/24 00:35:17;;;;;;;40.53;19.40;;;2.50;99.90;;;;;;5088087;28;20107;-92
2022/01/24 00:37:43;;;;;;;35.45;16.63;;;2.50;99.90;;;;;;5081544;28;20024;-93
2022/01/24 00:40:10;;;;;;;35.30;16.48;;;2.50;99.90;;;;;;5079466;28;20480;-94
2022/01/24 00:48:10;;;;;;;31.55;16.13;;;2.50;99.90;;;;;;5095016;28;20237;-94
2022/01/24 00:56:06;;;;;;;34.45;16.55;;;2.40;99.90;;;;;;5093159;28;20074;-94
2022/01/24 00:58:32;;;;;;;34.50;15.57;;;2.40;99.90;;;;;;5076472;28;20017;-93
2022/01/24 01:00:58;;;;;;;34.42;16.23;;;2.40;99.90;;;;;;5076805;28;20036;-94
2022/01/24 01:03:24;;;;;;;38.33;17.63;;;2.50;99.90;;;;;;5084004;28;20028;-94
2022/01/24 01:06:09;;;;;;;31.48;15.85;;;2.50;99.90;;;;;;5088486;28;20044;-92
2022/01/24 01:19:39;;;;;;;36.30;17.88;;;2.60;99.90;;;;;;5095290;28;20082;-92
2022/01/24 01:22:05;;;;;;;41.13;17.90;;;2.60;99.90;;;;;;5077483;28;20022;-94
2022/01/24 01:24:35;;;;;;;35.47;18.05;;;2.50;99.90;;;;;;5076805;28;20107;-92
2022/01/24 01:27:08;;;;;;;33.60;16.77;;;2.50;99.90;;;;;;5077304;28;20021;-93
2022/01/24 01:29:48;;;;;;;40.10;19.77;;;2.50;99.90;;;;;;5079571;28;20125;-93
2022/01/24 01:32:25;;;;;;;44.45;19.63;;;2.50;99.90;;;;;;5075069;28;20067;-92
2022/01/24 01:35:10;;;;;;;38.20;18.73;;;2.40;99.90;;;;;;5074091;28;20028;-93
2022/01/24 01:56:24;;;;;;;42.83;19.08;;;2.30;99.90;;;;;;5098133;28;20040;-94
2022/01/24 01:58:50;;;;;;;52.65;21.55;;;2.20;99.90;;;;;;5081412;28;20020;-94
2022/01/24 02:01:15;;;;;;;44.70;20.52;;;2.20;99.90;;;;;;5085815;28;20024;-94
2022/01/24 02:03:41;;;;;;;51.83;21.95;;;2.30;99.90;;;;;;5079100;28;20077;-92
2022/01/24 02:06:09;;;;;;;43.38;19.60;;;2.30;99.90;;;;;;5079288;28;20157;-93
2022/01/24 02:08:35;;;;;;;39.55;18.25;;;2.30;99.90;;;;;;5078712;28;20027;-93
2022/01/24 02:11:01;;;;;;;41.25;18.60;;;2.30;99.90;;;;;;5079174;28;20063;-93
2022/01/24 02:13:29;;;;;;;47.60;21.08;;;2.20;99.90;;;;;;5079116;28;20017;-95
2022/01/24 02:18:43;;;;;;;45.67;19.35;;;2.20;99.90;;;;;;5097508;28;20020;-93
2022/01/24 02:21:43;;;;;;;41.95;18.42;;;2.20;99.90;;;;;;5083566;28;20040;-94
2022/01/24 02:24:54;;;;;;;46.28;20.35;;;2.10;99.90;;;;;;5079779;28;20085;-93
2022/01/24 02:27:22;;;;;;;45.00;18.50;;;2.10;99.90;;;;;;5081425;28;20040;-94
2022/01/24 02:32:20;;;;;;;51.53;21.35;;;2.10;99.90;;;;;;5098078;28;20024;-91
2022/01/24 02:34:49;;;;;;;49.53;22.13;;;2.10;99.90;;;;;;5079948;28;20038;-91
2022/01/24 02:37:18;;;;;;;53.67;22.70;;;2.10;99.90;;;;;;5078517;28;20073;-93
2022/01/24 02:53:10;;;;;;;60.50;26.08;;;2.00;99.90;;;;;;5094742;28;20020;-93
2022/01/24 02:55:37;;;;;;;65.97;26.95;;;2.00;99.90;;;;;;5081541;28;20550;-92
2022/01/24 02:58:04;;;;;;;62.38;24.35;;;2.00;99.90;;;;;;5082994;28;20494;-92
2022/01/24 03:00:31;;;;;;;54.92;23.67;;;2.00;99.90;;;;;;5082259;28;20186;-93
2022/01/24 03:02:56;;;;;;;59.63;24.90;;;2.10;99.90;;;;;;5078843;28;20485;-94
2022/01/24 03:05:22;;;;;;;60.05;23.80;;;2.10;99.90;;;;;;5077930;28;20039;-94
2022/01/24 03:07:48;;;;;;;57.30;24.08;;;2.10;99.90;;;;;;5077830;28;20051;-93
2022/01/24 03:10:24;;;;;;;59.65;25.77;;;2.10;99.90;;;;;;5078044;28;20115;-93
2022/01/24 03:12:59;;;;;;;63.38;24.63;;;2.10;99.90;;;;;;5073372;28;20103;-94
2022/01/24 03:15:26;;;;;;;70.50;26.95;;;2.10;99.90;;;;;;5077808;28;20492;-94
2022/01/24 03:17:51;;;;;;;62.95;27.38;;;2.20;99.90;;;;;;5077842;28;20115;-92
2022/01/24 03:20:17;;;;;;;64.15;26.13;;;2.20;99.90;;;;;;5077374;28;20078;-93
2022/01/24 03:22:43;;;;;;;59.30;26.27;;;2.10;99.90;;;;;;5077639;28;20020;-93
2022/01/24 03:25:09;;;;;;;60.83;24.40;;;2.10;99.90;;;;;;5078147;28;20035;-93
2022/01/24 03:27:37;;;;;;;61.25;26.23;;;2.10;99.90;;;;;;5077557;28;20031;-93
2022/01/24 03:30:03;;;;;;;61.78;24.67;;;2.10;99.90;;;;;;5077093;28;20028;-93
2022/01/24 03:32:29;;;;;;;58.58;25.73;;;2.10;99.90;;;;;;5077938;28;20041;-92
2022/01/24 03:34:55;;;;;;;62.60;26.30;;;2.10;99.90;;;;;;5076868;28;20111;-92
2022/01/24 03:37:21;;;;;;;62.92;27.50;;;2.10;99.90;;;;;;5078296;28;20016;-93
2022/01/24 03:39:46;;;;;;;68.60;27.33;;;2.10;99.90;;;;;;5084557;28;20035;-93
2022/01/24 03:42:12;;;;;;;62.78;25.75;;;2.10;99.90;;;;;;5080960;28;20115;-93
2022/01/24 03:44:38;;;;;;;64.03;27.88;;;2.10;99.90;;;;;;5078834;28;20026;-93
2022/01/24 03:47:41;;;;;;;64.32;26.55;;;2.10;99.90;;;;;;5080398;28;20035;-93
2022/01/24 03:50:07;;;;;;;72.38;29.83;;;2.10;99.90;;;;;;5098915;28;20032;-92
2022/01/24 03:52:33;;;;;;;70.60;28.25;;;2.10;99.90;;;;;;5077522;28;20473;-92
2022/01/24 03:55:03;;;;;;;64.50;26.73;;;2.10;99.90;;;;;;5095002;28;20424;-94
2022/01/24 03:57:29;;;;;;;65.65;27.23;;;2.00;99.90;;;;;;5075463;28;20043;-93
2022/01/24 03:59:55;;;;;;;69.10;27.90;;;2.00;99.90;;;;;;5076531;28;20046;-93
2022/01/24 04:02:25;;;;;;;69.70;28.38;;;2.00;99.90;;;;;;5076985;28;20060;-92
2022/01/24 04:04:51;;;;;;;88.10;32.80;;;2.10;99.90;;;;;;5068326;28;20380;-93
2022/01/24 04:07:17;;;;;;;75.20;29.63;;;2.00;99.90;;;;;;5077020;28;20031;-92
2022/01/24 04:09:43;;;;;;;73.68;29.60;;;2.00;99.90;;;;;;5076621;28;20020;-93
2022/01/24 04:12:12;;;;;;;77.45;29.48;;;2.10;99.90;;;;;;5076781;28;20161;-93
2022/01/24 04:14:55;;;;;;;81.55;32.17;;;2.00;99.90;;;;;;5076746;28;20020;-94
2022/01/24 04:17:25;;;;;;;78.60;30.85;;;2.00;99.90;;;;;;5076413;28;20109;-94
2022/01/24 04:22:37;;;;;;;75.15;29.35;;;2.00;99.90;;;;;;5094951;28;20016;-93
2022/01/24 04:25:05;;;;;;;80.82;31.23;;;2.00;99.90;;;;;;5076665;28;20055;-93
2022/01/24 04:27:31;;;;;;;79.43;29.13;;;2.00;99.90;;;;;;5077360;28;20024;-92
2022/01/24 04:29:57;;;;;;;84.03;32.08;;;2.00;99.90;;;;;;5076507;28;20024;-94
2022/01/24 04:32:25;;;;;;;79.97;32.08;;;2.00;99.90;;;;;;5076818;28;20366;-92
2022/01/24 04:34:51;;;;;;;83.72;30.48;;;2.00;99.90;;;;;;5083773;28;20023;-93
2022/01/24 04:37:17;;;;;;;80.03;31.40;;;2.00;99.90;;;;;;5076684;28;20024;-94
2022/01/24 04:39:44;;;;;;;73.88;28.85;;;2.00;99.90;;;;;;5077383;28;20016;-93
2022/01/24 04:42:20;;;;;;;81.80;30.77;;;1.90;99.90;;;;;;5077061;28;20028;-92
2022/01/24 04:47:31;;;;;;;74.05;28.90;;;1.90;99.90;;;;;;5097129;28;20020;-93
2022/01/24 04:53:00;;;;;;;74.97;28.80;;;1.90;99.90;;;;;;5113115;28;20067;-93
2022/01/24 04:55:26;;;;;;;71.35;29.70;;;1.80;99.90;;;;;;5097034;28;20012;-92
2022/01/24 04:57:52;;;;;;;74.28;28.77;;;1.80;99.90;;;;;;5096612;28;20029;-94
2022/01/24 05:00:18;;;;;;;68.95;27.30;;;1.80;99.90;;;;;;5097271;28;20020;-91
2022/01/24 05:02:44;;;;;;;75.03;29.98;;;1.80;99.90;;;;;;5080988;28;20012;-93
2022/01/24 05:05:15;;;;;;;78.32;29.48;;;1.80;99.90;;;;;;5080061;28;20469;-91
2022/01/24 05:07:41;;;;;;;75.57;28.65;;;1.80;99.90;;;;;;5079875;28;20118;-92
2022/01/24 05:10:19;;;;;;;72.30;27.40;;;1.80;99.90;;;;;;5077797;28;20069;-91
2022/01/24 05:23:36;;;;;;;76.15;27.88;;;1.80;99.90;;;;;;5096938;28;20047;-91
2022/01/24 05:26:06;;;;;;;80.90;31.20;;;1.70;99.90;;;;;;5081616;28;20556;-95
2022/01/24 05:28:34;;;;;;;80.80;29.00;;;1.70;99.90;;;;;;5081518;28;20035;-92
2022/01/24 05:31:01;;;;;;;80.13;29.17;;;1.70;99.90;;;;;;5081399;28;20504;-92
2022/01/24 05:33:28;;;;;;;70.53;27.30;;;1.70;99.90;;;;;;5077879;28;20103;-92
2022/01/24 05:35:54;;;;;;;83.10;29.60;;;1.70;99.90;;;;;;5082370;28;20028;-92
2022/01/24 05:38:22;;;;;;;75.95;29.27;;;1.60;99.90;;;;;;5083220;28;20111;-94
2022/01/24 05:40:48;;;;;;;82.30;29.02;;;1.70;99.90;;;;;;5078005;28;20057;-92
2022/01/24 05:43:14;;;;;;;82.55;30.48;;;1.60;99.90;;;;;;5080116;28;20032;-92
2022/01/24 05:45:42;;;;;;;77.18;29.50;;;1.70;99.90;;;;;;5098572;28;20076;-90
2022/01/24 05:48:08;;;;;;;86.03;29.10;;;1.70;99.90;;;;;;5081247;28;20023;-91
2022/01/24 05:50:34;;;;;;;79.63;30.10;;;1.70;99.90;;;;;;5083225;28;20036;-91
2022/01/24 05:53:00;;;;;;;75.40;29.08;;;1.70;99.90;;;;;;5085103;28;20028;-92
2022/01/24 05:55:26;;;;;;;65.65;23.75;;;1.70;99.90;;;;;;5081375;28;20077;-91
2022/01/24 05:57:53;;;;;;;54.70;21.17;;;1.70;99.90;;;;;;5080376;28;20028;-94
2022/01/24 06:00:20;;;;;;;47.97;18.73;;;1.70;99.90;;;;;;5079976;28;20027;-92
2022/01/24 06:02:46;;;;;;;42.00;18.50;;;1.70;99.90;;;;;;5079632;28;20050;-91
2022/01/24 06:05:12;;;;;;;53.38;19.42;;;1.70;99.90;;;;;;5080182;28;20020;-93
2022/01/24 06:07:38;;;;;;;49.80;19.15;;;1.70;99.90;;;;;;5083607;28;20053;-93
2022/01/24 06:10:05;;;;;;;53.55;19.92;;;1.70;99.90;;;;;;5080425;28;20024;-94
2022/01/24 06:12:31;;;;;;;42.42;18.33;;;1.70;99.90;;;;;;5078919;28;20048;-94
2022/01/24 06:14:57;;;;;;;61.72;24.70;;;1.70;99.90;;;;;;5078912;28;20070;-94
2022/01/24 06:17:22;;;;;;;72.65;28.23;;;1.70;99.90;;;;;;5079144;28;20110;-93
2022/01/24 06:19:48;;;;;;;90.90;30.50;;;1.80;99.90;;;;;;5078726;28;20052;-93
2022/01/24 06:22:16;;;;;;;84.82;29.55;;;1.70;99.90;;;;;;5078927;28;20020;-94
2022/01/24 06:24:42;;;;;;;82.63;33.25;;;1.70;99.90;;;;;;5078586;28;20501;-93
2022/01/24 06:27:08;;;;;;;73.03;27.10;;;1.70;99.90;;;;;;5078918;28;20031;-94
2022/01/24 06:29:35;;;;;;;82.35;29.02;;;1.70;99.90;;;;;;5078722;28;20040;-94
2022/01/24 06:32:01;;;;;;;79.60;28.27;;;1.70;99.90;;;;;;5078687;28;20115;-92
2022/01/24 06:34:26;;;;;;;84.38;29.40;;;1.70;99.90;;;;;;5078683;28;20538;-94
2022/01/24 06:36:52;;;;;;;76.72;28.88;;;1.60;99.90;;;;;;5078638;28;20062;-93
2022/01/24 06:39:19;;;;;;;86.40;30.90;;;1.60;99.90;;;;;;5078699;28;20016;-91
2022/01/24 06:41:52;;;;;;;87.80;32.25;;;1.60;99.90;;;;;;5061835;28;20028;-93
2022/01/24 06:44:17;;;;;;;83.50;29.65;;;1.60;99.90;;;;;;5077643;28;20507;-93
2022/01/24 06:46:44;;;;;;;92.18;32.13;;;1.60;99.90;;;;;;5077987;28;20107;-93
2022/01/24 06:49:10;;;;;;;85.43;31.30;;;1.60;99.90;;;;;;5078017;28;20039;-93
2022/01/24 06:51:36;;;;;;;90.35;30.70;;;1.60;99.90;;;;;;5077923;28;20039;-94
2022/01/24 06:54:04;;;;;;;80.75;29.80;;;1.60;99.90;;;;;;5077722;28;20361;-94
2022/01/24 06:56:30;;;;;;;93.18;30.98;;;1.60;99.90;;;;;;5079180;28;20107;-92
2022/01/24 06:58:58;;;;;;;86.88;30.08;;;1.60;99.90;;;;;;5078660;28;20079;-93
2022/01/24 07:01:24;;;;;;;95.82;32.63;;;1.60;99.90;;;;;;5078744;28;20024;-92
2022/01/24 07:03:50;;;;;;;103.30;34.58;;;1.60;99.90;;;;;;5081476;28;20047;-91
2022/01/24 07:06:16;;;;;;;94.78;33.15;;;1.60;99.90;;;;;;5081449;28;20016;-92
2022/01/24 07:08:41;;;;;;;103.63;33.58;;;1.60;99.90;;;;;;5085926;28;20030;-92
2022/01/24 07:11:07;;;;;;;105.07;35.15;;;1.60;99.90;;;;;;5100319;28;20028;-91
2022/01/24 07:13:33;;;;;;;118.15;38.22;;;1.60;99.90;;;;;;5100835;28;20004;-92
2022/01/24 07:16:03;;;;;;;122.75;38.15;;;1.60;99.90;;;;;;5093200;28;20452;-92
2022/01/24 07:20:56;;;;;;;121.03;36.40;;;1.60;99.90;;;;;;5098565;28;20096;-93
2022/01/24 07:23:23;;;;;;;127.97;37.10;;;1.60;99.90;;;;;;5099228;28;20024;-94
2022/01/24 07:25:49;;;;;;;123.95;36.47;;;1.60;99.90;;;;;;5078520;28;20047;-92
2022/01/24 07:28:16;;;;;;;119.75;37.22;;;1.60;99.90;;;;;;5078492;28;20028;-92
2022/01/24 07:30:43;;;;;;;118.90;37.95;;;1.60;99.90;;;;;;5082686;28;20031;-91
2022/01/24 07:33:08;;;;;;;125.60;36.70;;;1.60;99.90;;;;;;5078477;28;20028;-92
2022/01/24 07:35:37;;;;;;;119.65;35.80;;;1.60;99.90;;;;;;5091649;28;20034;-91
2022/01/24 07:38:05;;;;;;;122.82;37.03;;;1.60;99.90;;;;;;5080696;28;20028;-92
2022/01/24 07:40:37;;;;;;;117.35;34.70;;;1.60;99.90;;;;;;5080344;28;20039;-94
2022/01/24 07:43:15;;;;;;;117.32;37.05;;;1.60;99.90;;;;;;5087833;28;20035;-94
2022/01/24 07:45:47;;;;;;;112.75;34.83;;;1.60;99.90;;;;;;5077157;28;20031;-94
2022/01/24 07:48:14;;;;;;;115.47;37.60;;;1.60;99.90;;;;;;5075558;28;20020;-94
2022/01/24 07:50:43;;;;;;;113.90;35.17;;;1.70;99.90;;;;;;5076592;28;20071;-94
2022/01/24 07:53:12;;;;;;;113.80;35.63;;;1.70;99.90;;;;;;5074605;28;20484;-95
2022/01/24 07:55:38;;;;;;;114.97;34.60;;;1.70;99.90;;;;;;5077201;28;20031;-92
2022/01/24 07:58:04;;;;;;;119.75;35.90;;;1.70;99.90;;;;;;5080624;28;20074;-93
2022/01/24 08:00:30;;;;;;;108.72;33.67;;;1.60;99.90;;;;;;5077241;28;20057;-93
2022/01/24 08:02:57;;;;;;;109.60;35.40;;;1.70;99.90;;;;;;5077242;28;20477;-93
2022/01/24 08:05:26;;;;;;;103.07;33.70;;;1.60;99.90;;;;;;5078743;28;20036;-92
2022/01/24 08:07:57;;;;;;;113.88;34.90;;;1.70;99.90;;;;;;5080673;28;20036;-95
2022/01/24 08:10:23;;;;;;;108.47;35.17;;;1.70;99.90;;;;;;5078247;28;20070;-92
2022/01/24 08:12:49;;;;;;;106.60;33.40;;;1.70;99.90;;;;;;5077759;28;20386;-91
2022/01/24 08:15:16;;;;;;;112.75;35.30;;;1.70;99.90;;;;;;5076849;28;20020;-94
2022/01/24 08:17:43;;;;;;;112.95;33.40;;;1.70;99.90;;;;;;5077300;28;20085;-92
2022/01/24 08:20:10;;;;;;;126.70;37.22;;;1.60;99.90;;;;;;5073728;28;20393;-93
2022/01/24 08:22:36;;;;;;;123.85;37.60;;;1.60;99.90;;;;;;5075651;28;20024;-92
2022/01/24 08:25:05;;;;;;;117.05;36.70;;;1.70;99.90;;;;;;5076670;28;20043;-93
2022/01/24 08:27:35;;;;;;;116.00;36.30;;;1.60;99.90;;;;;;5076088;28;20115;-93
2022/01/24 08:30:12;;;;;;;120.07;37.63;;;1.70;99.90;;;;;;5083061;28;20033;-92
2022/01/24 08:32:38;;;;;;;124.13;37.70;;;1.60;99.90;;;;;;5079292;28;20044;-95
2022/01/24 08:35:05;;;;;;;126.03;36.83;;;1.70;99.90;;;;;;5078756;28;20311;-93
2022/01/24 08:37:31;;;;;;;118.72;36.40;;;1.70;99.90;;;;;;5075751;28;20020;-93
2022/01/24 08:39:58;;;;;;;126.88;38.42;;;1.70;99.90;;;;;;5075987;28;20035;-95
2022/01/24 08:42:37;;;;;;;121.22;39.50;;;1.70;99.90;;;;;;5074025;28;20039;-91
2022/01/24 08:45:50;;;;;;;119.40;36.33;;;1.70;99.90;;;;;;5075551;28;20067;-94
2022/01/24 08:47:50;;;;;;;122.07;36.65;;;1.70;99.90;;;;;;5088109;28;20028;-93
2022/01/24 08:50:20;;;;;;;130.77;37.75;;;1.70;99.90;;;;;;5082262;28;20117;-92
2022/01/24 08:52:46;;;;;;;119.38;33.03;;;1.70;99.90;;;;;;5087101;28;20039;-92
2022/01/24 08:55:11;;;;;;;123.55;36.65;;;1.70;99.90;;;;;;5083490;28;20043;-92
2022/01/24 08:57:38;;;;;;;113.75;36.80;;;1.80;99.90;;;;;;5074747;28;20056;-94
2022/01/24 09:00:07;;;;;;;128.57;38.10;;;1.80;99.90;;;;;;5078306;28;20036;-94
2022/01/24 09:02:34;;;;;;;141.07;42.95;;;1.80;99.90;;;;;;5079322;28;20073;-92
2022/01/24 09:04:59;;;;;;;127.85;36.47;;;1.80;99.90;;;;;;5080176;28;20028;-92
2022/01/24 09:07:29;;;;;;;129.93;37.70;;;1.90;99.90;;;;;;5079999;28;20031;-93
2022/01/24 09:09:55;;;;;;;121.03;38.63;;;1.80;99.90;;;;;;5079941;28;20054;-95
2022/01/24 09:12:21;;;;;;;140.60;38.55;;;1.90;99.90;;;;;;5080025;28;20319;-92
2022/01/24 09:14:47;;;;;;;132.38;36.55;;;1.90;99.90;;;;;;5080383;28;20111;-92
2022/01/24 09:17:15;;;;;;;138.30;42.00;;;1.90;99.90;;;;;;5077297;28;20036;-93
2022/01/24 09:19:42;;;;;;;119.47;36.63;;;1.90;99.90;;;;;;5069791;28;20127;-93
2022/01/24 09:22:08;;;;;;;126.10;38.85;;;1.90;99.90;;;;;;5082670;28;20026;-91
2022/01/24 09:24:34;;;;;;;138.75;40.13;;;1.90;99.90;;;;;;5080396;28;20492;-91
2022/01/24 09:27:00;;;;;;;144.02;39.95;;;1.90;99.90;;;;;;5078299;28;20034;-93
2022/01/24 09:29:26;;;;;;;136.35;39.33;;;2.00;99.90;;;;;;5079213;28;20024;-91
2022/01/24 09:31:53;;;;;;;131.63;39.55;;;2.00;99.90;;;;;;5079879;28;20111;-93
2022/01/24 09:34:20;;;;;;;129.32;38.97;;;1.90;99.90;;;;;;5079438;28;20032;-91
2022/01/24 09:36:47;;;;;;;127.85;39.58;;;2.00;99.90;;;;;;5079455;28;20043;-91
2022/01/24 09:39:15;;;;;;;125.90;39.05;;;2.00;99.90;;;;;;5079674;28;20024;-92
2022/01/24 09:41:41;;;;;;;133.30;39.83;;;2.00;99.90;;;;;;5079818;28;20027;-91
2022/01/24 09:44:07;;;;;;;128.35;40.35;;;2.00;99.90;;;;;;5079031;28;20020;-92
2022/01/24 09:46:35;;;;;;;118.60;37.55;;;2.00;99.90;;;;;;5077886;28;20020;-92
2022/01/24 09:49:01;;;;;;;126.88;38.33;;;2.00;99.90;;;;;;5077975;28;20035;-92
2022/01/24 09:51:27;;;;;;;135.40;38.10;;;2.00;99.90;;;;;;5072933;28;20090;-91
2022/01/24 09:53:53;;;;;;;135.57;39.15;;;2.00;99.90;;;;;;5078236;28;20389;-92
2022/01/24 09:56:19;;;;;;;136.32;40.10;;;2.00;99.90;;;;;;5078996;28;20158;-91
2022/01/24 09:58:45;;;;;;;136.48;37.88;;;2.10;99.90;;;;;;5077974;28;20043;-92
2022/01/24 10:01:13;;;;;;;134.77;40.38;;;2.20;99.90;;;;;;5078221;28;20020;-90
2022/01/24 10:03:39;;;;;;;142.75;40.38;;;2.20;99.90;;;;;;5078260;28;20024;-91
2022/01/24 10:06:05;;;;;;;132.15;38.72;;;2.10;99.90;;;;;;5078177;28;20024;-91
2022/01/24 10:08:31;;;;;;;143.55;41.10;;;2.10;99.90;;;;;;5081017;28;20086;-93
2022/01/24 10:11:01;;;;;;;135.57;41.55;;;2.10;99.90;;;;;;5082605;28;20028;-94
2022/01/24 10:19:14;;;;;;;149.65;40.38;;;2.10;99.90;;;;;;5092150;28;20035;-90
2022/01/24 10:21:50;;;;;;;125.95;36.38;;;2.10;99.90;;;;;;5079093;28;20032;-92
2022/01/24 10:24:29;;;;;;;131.95;38.72;;;2.10;99.90;;;;;;5082956;28;20028;-93
2022/01/24 10:27:17;;;;;;;122.85;37.45;;;2.10;99.90;;;;;;5231535;23;20052;-91
2022/01/24 10:29:45;;;;;;;126.22;36.47;;;2.10;99.90;;;;;;5041145;28;20053;-91
2022/01/24 10:41:07;;;;;;;133.77;35.80;;;2.30;99.90;;;;;;4976972;28;20061;-93
2022/01/24 10:43:34;;;;;;;121.53;36.90;;;2.30;99.90;;;;;;4993362;28;20494;-92
2022/01/24 10:46:00;;;;;;;110.55;34.75;;;2.40;99.90;;;;;;4993246;28;20034;-95
2022/01/24 10:48:30;;;;;;;117.57;36.13;;;2.40;99.90;;;;;;5015315;28;20048;-92
2022/01/24 10:51:07;;;;;;;112.10;33.80;;;2.50;99.90;;;;;;4993064;28;20034;-90
2022/01/24 10:53:38;;;;;;;107.78;36.03;;;2.50;99.90;;;;;;4993175;28;20030;-93
2022/01/24 10:56:37;;;;;;;109.53;36.53;;;2.50;99.90;;;;;;5010146;28;20076;-93
2022/01/24 10:59:24;;;;;;;108.95;35.33;;;2.60;99.90;;;;;;5021085;28;20117;-93
2022/01/24 11:01:55;;;;;;;115.45;36.08;;;2.60;99.90;;;;;;5004892;28;20065;-93
2022/01/24 11:04:26;;;;;;;112.57;34.72;;;2.60;99.90;;;;;;5003245;28;20021;-94
2022/01/24 11:06:56;;;;;;;111.78;36.50;;;2.60;99.90;;;;;;5007250;28;20029;-94
2022/01/24 11:09:32;;;;;;;136.88;41.17;;;2.70;99.90;;;;;;5057633;28;20043;-94
2022/01/24 11:12:10;;;;;;;109.85;34.72;;;2.70;99.90;;;;;;5086086;28;20031;-93
2022/01/24 11:14:41;;;;;;;124.82;35.85;;;2.70;99.90;;;;;;5085315;28;20016;-93
2022/01/24 11:17:10;;;;;;;122.85;36.10;;;2.60;99.90;;;;;;5082550;28;20598;-92
2022/01/24 11:19:43;;;;;;;134.05;37.40;;;2.60;99.90;;;;;;5095919;28;20080;-92
2022/01/24 11:22:22;;;;;;;110.43;35.22;;;2.60;99.90;;;;;;5096566;28;20084;-92
2022/01/24 11:24:56;;;;;;;122.88;34.42;;;2.60;99.90;;;;;;5096270;28;20072;-93
2022/01/24 11:27:23;;;;;;;127.88;37.92;;;2.60;99.90;;;;;;5096397;28;20027;-92
2022/01/24 11:29:52;;;;;;;125.13;36.25;;;2.60;99.90;;;;;;5097253;28;20031;-92
2022/01/24 11:32:28;;;;;;;123.53;37.55;;;2.60;99.90;;;;;;5109068;28;20035;-92
2022/01/24 11:34:56;;;;;;;127.28;38.92;;;2.60;99.90;;;;;;5101274;28;20050;-94
2022/01/24 11:37:33;;;;;;;139.30;42.35;;;2.70;99.90;;;;;;5103505;28;20024;-91
2022/01/24 11:39:59;;;;;;;132.88;40.63;;;2.70;99.90;;;;;;5116899;28;20023;-89
2022/01/24 11:42:30;;;;;;;125.05;37.97;;;2.70;99.90;;;;;;5113755;28;20035;-91
2022/01/24 11:44:59;;;;;;;143.23;40.08;;;2.70;99.90;;;;;;5116114;28;20051;-92
2022/01/24 11:47:26;;;;;;;136.00;41.85;;;2.70;99.90;;;;;;5109056;28;20020;-92
2022/01/24 11:49:53;;;;;;;139.23;44.08;;;2.70;99.90;;;;;;5102633;28;20043;-92
2022/01/24 11:52:29;;;;;;;129.38;42.00;;;2.70;99.90;;;;;;5101783;28;20047;-92
2022/01/24 11:55:14;;;;;;;131.85;42.95;;;2.80;99.90;;;;;;5097287;28;20481;-94
2022/01/24 11:57:50;;;;;;;136.93;42.40;;;2.80;99.90;;;;;;5097920;28;20035;-91
2022/01/24 12:00:27;;;;;;;126.47;38.38;;;2.80;99.90;;;;;;5099171;28;20031;-91
2022/01/24 12:02:57;;;;;;;107.82;37.25;;;2.80;99.90;;;;;;5098154;28;20031;-93
2022/01/24 12:05:45;;;;;;;115.10;37.85;;;2.80;99.90;;;;;;5096727;28;20046;-92
2022/01/24 12:08:12;;;;;;;114.85;35.28;;;2.80;99.90;;;;;;5095701;28;20140;-93
2022/01/24 12:10:46;;;;;;;120.53;35.85;;;2.90;99.90;;;;;;5095769;28;20043;-91
2022/01/24 12:13:15;;;;;;;119.25;36.80;;;2.90;99.90;;;;;;5095750;28;20042;-93
2022/01/24 12:15:43;;;;;;;101.97;36.35;;;2.90;99.90;;;;;;5095946;28;20020;-92
2022/01/24 12:18:27;;;;;;;124.28;38.67;;;2.90;99.90;;;;;;5095588;28;20047;-93
2022/01/24 12:21:01;;;;;;;94.40;30.90;;;2.90;99.90;;;;;;5095587;28;20059;-91
2022/01/24 12:23:36;;;;;;;116.30;35.90;;;2.90;99.90;;;;;;5097424;28;20394;-94
2022/01/24 12:26:14;;;;;;;104.15;32.72;;;2.90;99.90;;;;;;5098069;28;20024;-93
2022/01/24 12:28:43;;;;;;;113.63;35.22;;;2.90;99.90;;;;;;5096573;28;20084;-92
2022/01/24 12:31:39;;;;;;;118.78;35.25;;;2.90;99.90;;;;;;5096424;28;20047;-93
2022/01/24 12:34:17;;;;;;;113.80;35.53;;;3.00;99.90;;;;;;5095416;28;20044;-89
2022/01/24 12:36:52;;;;;;;120.88;36.75;;;2.90;99.90;;;;;;5095961;28;20038;-90
2022/01/24 12:39:25;;;;;;;121.22;39.05;;;3.00;99.90;;;;;;5114285;28;20020;-94
2022/01/24 12:42:00;;;;;;;109.90;33.03;;;3.00;99.90;;;;;;5096051;28;20036;-91
2022/01/24 12:47:08;;;;;;;124.25;38.97;;;3.00;99.90;;;;;;5114320;28;20028;-92
2022/01/24 12:49:34;;;;;;;114.60;37.33;;;3.10;99.90;;;;;;5095980;28;20024;-91
2022/01/24 12:52:03;;;;;;;120.22;38.17;;;3.10;99.90;;;;;;5085892;28;20036;-92
2022/01/24 12:54:35;;;;;;;100.28;33.25;;;3.10;99.90;;;;;;5087280;28;20040;-95
2022/01/24 12:57:05;;;;;;;106.20;33.83;;;3.20;99.90;;;;;;5082884;28;20070;-93
2022/01/24 12:59:32;;;;;;;101.70;32.92;;;3.20;99.90;;;;;;5085632;28;20372;-93
2022/01/24 13:02:01;;;;;;;104.43;33.35;;;3.30;99.90;;;;;;5086623;28;20040;-94
2022/01/24 13:04:34;;;;;;;103.70;35.45;;;3.30;99.90;;;;;;5086195;28;20024;-92
2022/01/24 13:07:00;;;;;;;102.68;33.78;;;3.30;99.90;;;;;;5082629;28;20476;-92
2022/01/24 13:09:26;;;;;;;94.93;30.60;;;3.30;99.90;;;;;;5085713;28;20027;-93
2022/01/24 13:11:53;;;;;;;109.05;33.33;;;3.40;99.90;;;;;;5084573;28;20078;-93
2022/01/24 13:14:27;;;;;;;98.90;34.58;;;3.40;99.90;;;;;;5080848;28;20028;-93
2022/01/24 13:22:45;;;;;;;98.28;30.23;;;3.40;99.90;;;;;;5103644;28;20551;-92
2022/01/24 13:25:26;;;;;;;101.72;31.00;;;3.40;99.90;;;;;;5091768;28;20187;-92
2022/01/24 13:27:53;;;;;;;91.05;32.13;;;3.40;99.90;;;;;;5093245;28;20024;-93
2022/01/24 13:30:28;;;;;;;94.97;32.70;;;3.40;99.90;;;;;;5093855;28;20028;-92
2022/01/24 13:32:59;;;;;;;104.90;34.90;;;3.40;99.90;;;;;;5095767;28;20023;-92
2022/01/24 13:35:30;;;;;;;102.00;33.45;;;3.40;99.90;;;;;;5098964;28;20035;-92
2022/01/24 13:38:12;;;;;;;103.68;32.75;;;3.40;99.90;;;;;;5099093;28;20024;-93
2022/01/24 13:40:52;;;;;;;93.15;30.15;;;3.40;99.90;;;;;;5098523;28;20051;-93
2022/01/24 13:43:38;;;;;;;95.72;29.52;;;3.40;99.90;;;;;;5098882;28;20028;-92
2022/01/24 13:46:12;;;;;;;96.25;30.90;;;3.50;99.90;;;;;;5098497;28;20027;-92
2022/01/24 13:48:57;;;;;;;99.05;30.05;;;3.50;99.90;;;;;;5098958;28;20034;-92
2022/01/24 13:51:34;;;;;;;106.20;29.55;;;3.50;99.90;;;;;;5098223;28;20031;-92
2022/01/24 13:54:01;;;;;;;84.22;29.98;;;3.50;99.90;;;;;;5098514;28;20023;-92
2022/01/24 13:56:28;;;;;;;91.45;29.17;;;3.60;99.90;;;;;;5099987;28;20035;-92
2022/01/24 13:59:28;;;;;;;92.05;31.27;;;3.60;99.90;;;;;;5098305;28;20524;-92
2022/01/24 14:01:59;;;;;;;91.60;26.92;;;3.60;99.90;;;;;;5097663;28;20101;-91
2022/01/24 14:04:32;;;;;;;79.47;26.35;;;3.70;99.90;;;;;;5096903;28;20047;-93
2022/01/24 14:07:02;;;;;;;80.47;24.92;;;3.70;99.90;;;;;;5099193;28;20024;-91
2022/01/24 14:09:37;;;;;;;72.10;23.38;;;3.70;99.90;;;;;;5104111;28;20004;-93
2022/01/24 14:12:05;;;;;;;71.97;24.92;;;3.80;99.90;;;;;;5098801;28;20072;-92
2022/01/24 14:14:43;;;;;;;78.63;25.10;;;3.80;99.90;;;;;;5116547;28;20027;-94
2022/01/24 14:19:42;;;;;;;69.47;22.92;;;3.80;99.90;;;;;;5116175;28;20456;-93
2022/01/24 14:22:12;;;;;;;71.22;22.67;;;3.80;99.90;;;;;;5100926;28;20133;-93
2022/01/24 14:24:51;;;;;;;67.88;23.48;;;3.80;99.90;;;;;;5103589;28;20027;-93
2022/01/24 14:27:35;;;;;;;72.30;22.77;;;3.80;99.90;;;;;;5099600;28;20055;-94
2022/01/24 14:30:11;;;;;;;65.28;22.98;;;3.80;99.90;;;;;;5098125;28;20078;-93
2022/01/24 14:32:45;;;;;;;70.65;26.70;;;3.80;99.90;;;;;;5098752;28;20030;-93
2022/01/24 14:35:11;;;;;;;87.65;30.00;;;3.80;99.90;;;;;;5099011;28;20043;-92
2022/01/24 14:37:52;;;;;;;77.45;25.40;;;3.80;99.90;;;;;;5098881;28;20028;-93
2022/01/24 14:40:48;;;;;;;79.32;24.50;;;3.80;99.90;;;;;;5101319;28;20115;-93
2022/01/24 14:46:08;;;;;;;64.90;21.65;;;3.80;99.90;;;;;;5115566;28;20043;-94